sensor_id;sensor_type;location;lat;lon;timestamp;pressure;altitude;pressure_sealevel;temperature;humidity
20003;BME280;10162;41.600;23.806;2023-12-22T00:00:00;93845.81;;;-1.40;100.00
20003;BME280;10162;41.600;23.806;2023-12-22T00:02:36;93827.00;;;-1.91;100.00
20003;BME280;10162;41.600;23.806;2023-12-22T00:05:08;93869.38;;;-1.37;100.00
20003;BME280;10162;41.600;23.806;2023-12-22T00:11:19;93854.34;;;-1.91;100.00
20003;BME280;10162;41.600;23.806;2023-12-22T00:13:45;93866.88;;;-1.88;100.00
20003;BME280;10162;41.600;23.806;2023-12-22T00:20:15;93839.38;;;-1.78;100.00
20003;BME280;10162;41.600;23.806;2023-12-22T00:22:52;93863.25;;;-1.78;100.00
20003;BME280;10162;41.600;23.806;2023-12-22T00:25:24;93835.28;;;-1.71;100.00
20003;BME280;10162;41.600;23.806;2023-12-22T00:27:51;93815.38;;;-1.77;100.00
20003;BME280;10162;41.600;23.806;2023-12-22T00:30:58;93824.44;;;-1.57;100.00
20003;BME280;10162;41.600;23.806;2023-12-22T00:33:50;93833.41;;;-1.61;100.00
20003;BME280;10162;41.600;23.806;2023-12-22T00:40:30;93797.81;;;-1.64;100.00
20003;BME280;10162;41.600;23.806;2023-12-22T00:42:56;93765.00;;;-2.02;100.00
20003;BME280;10162;41.600;23.806;2023-12-22T00:45:24;93792.13;;;-1.42;100.00
20003;BME280;10162;41.600;23.806;2023-12-22T00:47:58;93804.22;;;-1.26;100.00
20003;BME280;10162;41.600;23.806;2023-12-22T00:50:25;93763.56;;;-1.63;100.00
20003;BME280;10162;41.600;23.806;2023-12-22T00:52:58;93808.56;;;-1.18;100.00
20003;BME280;10162;41.600;23.806;2023-12-22T00:55:33;93748.81;;;-1.11;100.00
20003;BME280;10162;41.600;23.806;2023-12-22T00:58:06;93794.50;;;-0.98;100.00
20003;BME280;10162;41.600;23.806;2023-12-22T01:01:04;93790.31;;;-1.15;100.00
20003;BME280;10162;41.600;23.806;2023-12-22T01:03:31;93760.78;;;-1.28;100.00
20003;BME280;10162;41.600;23.806;2023-12-22T01:12:37;93750.91;;;-1.06;100.00
20003;BME280;10162;41.600;23.806;2023-12-22T01:15:06;93750.88;;;-1.22;100.00
20003;BME280;10162;41.600;23.806;2023-12-22T01:21:26;93782.22;;;-1.37;100.00
20003;BME280;10162;41.600;23.806;2023-12-22T01:24:04;93779.13;;;-1.56;100.00
20003;BME280;10162;41.600;23.806;2023-12-22T01:30:37;93763.25;;;-1.10;100.00
20003;BME280;10162;41.600;23.806;2023-12-22T01:33:18;93735.00;;;-1.26;100.00
20003;BME280;10162;41.600;23.806;2023-12-22T01:39:52;93734.91;;;-0.92;100.00
20003;BME280;10162;41.600;23.806;2023-12-22T01:42:25;93762.16;;;-0.67;100.00
20003;BME280;10162;41.600;23.806;2023-12-22T01:44:51;93760.72;;;-0.69;100.00
20003;BME280;10162;41.600;23.806;2023-12-22T01:51:17;93748.81;;;-0.95;100.00
20003;BME280;10162;41.600;23.806;2023-12-22T01:53:49;93702.31;;;-1.32;100.00
20003;BME280;10162;41.600;23.806;2023-12-22T02:00:45;93723.19;;;-0.70;100.00
20003;BME280;10162;41.600;23.806;2023-12-22T02:03:33;93726.72;;;-0.63;100.00
20003;BME280;10162;41.600;23.806;2023-12-22T02:13:10;93715.81;;;-0.65;100.00
20003;BME280;10162;41.600;23.806;2023-12-22T02:15:49;93692.56;;;-0.72;100.00
20003;BME280;10162;41.600;23.806;2023-12-22T02:18:26;93677.16;;;-0.96;100.00
20003;BME280;10162;41.600;23.806;2023-12-22T02:21:00;93693.38;;;-0.88;100.00
20003;BME280;10162;41.600;23.806;2023-12-22T02:23:29;93664.22;;;-1.03;100.00
20003;BME280;10162;41.600;23.806;2023-12-22T02:33:18;93724.81;;;-0.86;100.00
20003;BME280;10162;41.600;23.806;2023-12-22T02:42:41;93708.59;;;-0.94;100.00
20003;BME280;10162;41.600;23.806;2023-12-22T02:45:14;93683.41;;;-0.82;100.00
20003;BME280;10162;41.600;23.806;2023-12-22T02:47:44;93671.06;;;-1.28;100.00
20003;BME280;10162;41.600;23.806;2023-12-22T02:50:20;93707.97;;;-0.80;100.00
20003;BME280;10162;41.600;23.806;2023-12-22T02:52:57;93703.00;;;-0.98;100.00
20003;BME280;10162;41.600;23.806;2023-12-22T02:55:26;93673.19;;;-0.99;100.00
20003;BME280;10162;41.600;23.806;2023-12-22T02:57:54;93669.31;;;-0.95;100.00
20003;BME280;10162;41.600;23.806;2023-12-22T03:00:24;93616.09;;;-1.41;100.00
20003;BME280;10162;41.600;23.806;2023-12-22T03:03:00;93690.31;;;-1.07;100.00
20003;BME280;10162;41.600;23.806;2023-12-22T03:09:09;93664.03;;;-1.26;100.00
20003;BME280;10162;41.600;23.806;2023-12-22T03:11:41;93671.38;;;-1.31;100.00
20003;BME280;10162;41.600;23.806;2023-12-22T03:14:13;93648.00;;;-1.44;100.00
20003;BME280;10162;41.600;23.806;2023-12-22T03:17:15;93694.97;;;-1.11;100.00
20003;BME280;10162;41.600;23.806;2023-12-22T03:19:46;93644.28;;;-1.65;100.00
20003;BME280;10162;41.600;23.806;2023-12-22T03:22:15;93621.34;;;-1.75;100.00
20003;BME280;10162;41.600;23.806;2023-12-22T03:24:44;93624.91;;;-1.36;100.00
20003;BME280;10162;41.600;23.806;2023-12-22T03:31:25;93655.03;;;-0.89;100.00
20003;BME280;10162;41.600;23.806;2023-12-22T03:34:00;93632.44;;;-1.02;100.00
20003;BME280;10162;41.600;23.806;2023-12-22T03:39:32;93655.69;;;-0.95;100.00
20003;BME280;10162;41.600;23.806;2023-12-22T03:42:04;93649.44;;;-1.17;100.00
20003;BME280;10162;41.600;23.806;2023-12-22T03:44:59;93654.75;;;-1.27;100.00
20003;BME280;10162;41.600;23.806;2023-12-22T03:51:32;93675.06;;;-1.41;100.00
20003;BME280;10162;41.600;23.806;2023-12-22T03:54:10;93620.72;;;-1.69;100.00
20003;BME280;10162;41.600;23.806;2023-12-22T04:00:26;93660.34;;;-1.07;100.00
20003;BME280;10162;41.600;23.806;2023-12-22T04:02:58;93651.84;;;-1.40;100.00
20003;BME280;10162;41.600;23.806;2023-12-22T04:05:34;93685.66;;;-1.28;100.00
20003;BME280;10162;41.600;23.806;2023-12-22T04:08:09;93663.56;;;-1.21;100.00
20003;BME280;10162;41.600;23.806;2023-12-22T04:10:37;93653.13;;;-0.95;100.00
20003;BME280;10162;41.600;23.806;2023-12-22T04:13:04;93644.47;;;-1.02;100.00
20003;BME280;10162;41.600;23.806;2023-12-22T04:15:33;93642.09;;;-1.20;100.00
20003;BME280;10162;41.600;23.806;2023-12-22T04:18:08;93583.25;;;-1.70;100.00
20003;BME280;10162;41.600;23.806;2023-12-22T04:21:03;93649.75;;;-1.28;100.00
20003;BME280;10162;41.600;23.806;2023-12-22T04:23:30;93646.84;;;-1.41;100.00
20003;BME280;10162;41.600;23.806;2023-12-22T04:29:59;93624.41;;;-1.72;100.00
20003;BME280;10162;41.600;23.806;2023-12-22T04:32:25;93669.13;;;-1.50;100.00
20003;BME280;10162;41.600;23.806;2023-12-22T04:34:57;93636.94;;;-1.60;100.00
20003;BME280;10162;41.600;23.806;2023-12-22T04:41:19;93608.91;;;-1.54;100.00
20003;BME280;10162;41.600;23.806;2023-12-22T04:43:52;93657.59;;;-1.13;100.00
20003;BME280;10162;41.600;23.806;2023-12-22T04:49:30;93645.94;;;-1.16;100.00
20003;BME280;10162;41.600;23.806;2023-12-22T04:52:13;93632.59;;;-0.95;100.00
20003;BME280;10162;41.600;23.806;2023-12-22T04:54:51;93613.56;;;-1.33;100.00
20003;BME280;10162;41.600;23.806;2023-12-22T05:01:21;93647.84;;;-1.18;100.00
20003;BME280;10162;41.600;23.806;2023-12-22T05:03:50;93631.81;;;-1.12;100.00
20003;BME280;10162;41.600;23.806;2023-12-22T05:09:55;93602.03;;;-1.45;100.00
20003;BME280;10162;41.600;23.806;2023-12-22T05:12:21;93610.22;;;-1.26;100.00
20003;BME280;10162;41.600;23.806;2023-12-22T05:14:50;93620.75;;;-1.04;100.00
20003;BME280;10162;41.600;23.806;2023-12-22T05:21:16;93607.44;;;-0.84;100.00
20003;BME280;10162;41.600;23.806;2023-12-22T05:23:47;93604.69;;;-0.90;100.00
20003;BME280;10162;41.600;23.806;2023-12-22T05:29:40;93615.78;;;-0.81;100.00
20003;BME280;10162;41.600;23.806;2023-12-22T05:32:33;93605.19;;;-0.87;100.00
20003;BME280;10162;41.600;23.806;2023-12-22T05:34:59;93582.16;;;-1.03;100.00
20003;BME280;10162;41.600;23.806;2023-12-22T05:38:09;93612.22;;;-0.72;100.00
20003;BME280;10162;41.600;23.806;2023-12-22T05:40:44;93603.41;;;-0.78;100.00
20003;BME280;10162;41.600;23.806;2023-12-22T05:43:38;93566.38;;;-0.84;100.00
20003;BME280;10162;41.600;23.806;2023-12-22T05:46:37;93606.44;;;-0.66;100.00
20003;BME280;10162;41.600;23.806;2023-12-22T05:49:06;93578.75;;;-0.87;100.00
20003;BME280;10162;41.600;23.806;2023-12-22T05:51:39;93553.59;;;-1.00;100.00
20003;BME280;10162;41.600;23.806;2023-12-22T05:54:19;93609.28;;;-0.53;100.00
20003;BME280;10162;41.600;23.806;2023-12-22T06:01:03;93568.03;;;-0.99;100.00
20003;BME280;10162;41.600;23.806;2023-12-22T06:03:58;93596.53;;;-0.86;100.00
20003;BME280;10162;41.600;23.806;2023-12-22T06:10:26;93624.09;;;-0.79;100.00
20003;BME280;10162;41.600;23.806;2023-12-22T06:12:53;93619.16;;;-1.05;100.00
20003;BME280;10162;41.600;23.806;2023-12-22T06:18:47;93606.66;;;-0.92;100.00
20003;BME280;10162;41.600;23.806;2023-12-22T06:21:16;93612.75;;;-1.09;100.00
20003;BME280;10162;41.600;23.806;2023-12-22T06:23:42;93559.75;;;-1.49;100.00
20003;BME280;10162;41.600;23.806;2023-12-22T06:30:34;93606.94;;;-0.71;100.00
20003;BME280;10162;41.600;23.806;2023-12-22T06:33:06;93606.50;;;-0.35;100.00
20003;BME280;10162;41.600;23.806;2023-12-22T06:39:30;93598.13;;;-0.85;100.00
20003;BME280;10162;41.600;23.806;2023-12-22T06:41:59;93535.19;;;-1.03;100.00
20003;BME280;10162;41.600;23.806;2023-12-22T06:44:28;93607.72;;;-0.70;100.00
20003;BME280;10162;41.600;23.806;2023-12-22T06:47:24;93620.06;;;-0.58;100.00
20003;BME280;10162;41.600;23.806;2023-12-22T06:49:52;93616.94;;;-0.45;100.00
20003;BME280;10162;41.600;23.806;2023-12-22T06:52:19;93559.59;;;-0.68;100.00
20003;BME280;10162;41.600;23.806;2023-12-22T06:54:45;93584.13;;;-0.66;100.00
20003;BME280;10162;41.600;23.806;2023-12-22T06:57:33;93585.69;;;-0.57;100.00
20003;BME280;10162;41.600;23.806;2023-12-22T07:00:13;93584.22;;;-0.35;100.00
20003;BME280;10162;41.600;23.806;2023-12-22T07:03:07;93618.25;;;-0.02;100.00
20003;BME280;10162;41.600;23.806;2023-12-22T07:12:29;93556.56;;;0.29;100.00
20003;BME280;10162;41.600;23.806;2023-12-22T07:15:13;93597.09;;;0.50;100.00
20003;BME280;10162;41.600;23.806;2023-12-22T07:17:49;93614.94;;;0.89;100.00
20003;BME280;10162;41.600;23.806;2023-12-22T07:20:37;93579.88;;;0.50;100.00
20003;BME280;10162;41.600;23.806;2023-12-22T07:23:16;93580.72;;;0.65;100.00
20003;BME280;10162;41.600;23.806;2023-12-22T07:26:15;93608.84;;;1.04;100.00
20003;BME280;10162;41.600;23.806;2023-12-22T07:28:56;93591.28;;;0.93;100.00
20003;BME280;10162;41.600;23.806;2023-12-22T07:31:25;93595.19;;;1.04;100.00
20003;BME280;10162;41.600;23.806;2023-12-22T07:33:52;93586.50;;;1.05;100.00
20003;BME280;10162;41.600;23.806;2023-12-22T07:40:15;93589.13;;;0.82;100.00
20003;BME280;10162;41.600;23.806;2023-12-22T07:42:50;93624.44;;;0.88;100.00
20003;BME280;10162;41.600;23.806;2023-12-22T07:45:16;93606.72;;;0.93;100.00
20003;BME280;10162;41.600;23.806;2023-12-22T07:51:23;93596.16;;;1.03;100.00
20003;BME280;10162;41.600;23.806;2023-12-22T07:54:00;93610.25;;;0.92;100.00
20003;BME280;10162;41.600;23.806;2023-12-22T07:59:42;93563.53;;;0.66;100.00
20003;BME280;10162;41.600;23.806;2023-12-22T08:02:14;93590.03;;;0.89;100.00
20003;BME280;10162;41.600;23.806;2023-12-22T08:04:41;93610.31;;;0.84;100.00
20003;BME280;10162;41.600;23.806;2023-12-22T08:11:17;93596.00;;;1.04;100.00
20003;BME280;10162;41.600;23.806;2023-12-22T08:14:05;93582.75;;;0.93;100.00
20003;BME280;10162;41.600;23.806;2023-12-22T08:16:43;93613.47;;;0.94;100.00
20003;BME280;10162;41.600;23.806;2023-12-22T08:19:19;93566.50;;;0.77;100.00
20003;BME280;10162;41.600;23.806;2023-12-22T08:21:55;93617.22;;;1.21;100.00
20003;BME280;10162;41.600;23.806;2023-12-22T08:24:48;93592.03;;;1.16;100.00
20003;BME280;10162;41.600;23.806;2023-12-22T08:31:22;93586.22;;;1.00;100.00
20003;BME280;10162;41.600;23.806;2023-12-22T08:37:58;93641.25;;;1.51;100.00
20003;BME280;10162;41.600;23.806;2023-12-22T08:40:29;93627.25;;;1.53;100.00
20003;BME280;10162;41.600;23.806;2023-12-22T08:42:55;93632.38;;;1.53;100.00
20003;BME280;10162;41.600;23.806;2023-12-22T08:45:49;93635.31;;;1.80;100.00
20003;BME280;10162;41.600;23.806;2023-12-22T08:48:20;93594.47;;;1.47;100.00
20003;BME280;10162;41.600;23.806;2023-12-22T08:50:46;93603.78;;;1.48;100.00
20003;BME280;10162;41.600;23.806;2023-12-22T08:53:12;93626.50;;;1.45;100.00
20003;BME280;10162;41.600;23.806;2023-12-22T08:58:47;93567.97;;;1.09;100.00
20003;BME280;10162;41.600;23.806;2023-12-22T09:01:22;93609.09;;;1.61;100.00
20003;BME280;10162;41.600;23.806;2023-12-22T09:03:51;93593.56;;;1.84;100.00
20003;BME280;10162;41.600;23.806;2023-12-22T09:06:36;93623.41;;;1.93;100.00
20003;BME280;10162;41.600;23.806;2023-12-22T09:09:02;93608.84;;;1.86;100.00
20003;BME280;10162;41.600;23.806;2023-12-22T09:11:29;93608.84;;;1.86;100.00
20003;BME280;10162;41.600;23.806;2023-12-22T09:13:55;93585.41;;;1.81;100.00
20003;BME280;10162;41.600;23.806;2023-12-22T09:16:57;93623.81;;;2.12;100.00
20003;BME280;10162;41.600;23.806;2023-12-22T09:19:23;93572.94;;;1.99;100.00
20003;BME280;10162;41.600;23.806;2023-12-22T09:21:49;93571.84;;;2.08;100.00
20003;BME280;10162;41.600;23.806;2023-12-22T09:24:15;93584.50;;;2.39;100.00
20003;BME280;10162;41.600;23.806;2023-12-22T09:29:56;93602.00;;;2.43;100.00
20003;BME280;10162;41.600;23.806;2023-12-22T09:32:22;93605.88;;;2.54;100.00
20003;BME280;10162;41.600;23.806;2023-12-22T09:34:52;93605.56;;;2.64;100.00
20003;BME280;10162;41.600;23.806;2023-12-22T09:37:40;93602.50;;;2.75;100.00
20003;BME280;10162;41.600;23.806;2023-12-22T09:40:21;93579.50;;;2.80;100.00
20003;BME280;10162;41.600;23.806;2023-12-22T09:42:54;93602.47;;;3.45;100.00
20003;BME280;10162;41.600;23.806;2023-12-22T09:45:26;93594.91;;;3.44;100.00
20003;BME280;10162;41.600;23.806;2023-12-22T09:47:54;93604.22;;;3.72;100.00
20003;BME280;10162;41.600;23.806;2023-12-22T09:50:21;93569.69;;;3.46;100.00
20003;BME280;10162;41.600;23.806;2023-12-22T09:52:50;93558.34;;;3.40;100.00
20003;BME280;10162;41.600;23.806;2023-12-22T09:55:16;93582.44;;;3.88;100.00
20003;BME280;10162;41.600;23.806;2023-12-22T10:04:06;93587.06;;;3.93;100.00
20003;BME280;10162;41.600;23.806;2023-12-22T10:06:54;93584.84;;;3.90;100.00
20003;BME280;10162;41.600;23.806;2023-12-22T10:09:23;93518.56;;;3.76;100.00
20003;BME280;10162;41.600;23.806;2023-12-22T10:11:52;93558.63;;;3.99;100.00
20003;BME280;10162;41.600;23.806;2023-12-22T10:14:20;93533.03;;;4.18;100.00
20003;BME280;10162;41.600;23.806;2023-12-22T10:16:52;93537.81;;;4.27;100.00
20003;BME280;10162;41.600;23.806;2023-12-22T10:19:19;93547.97;;;4.22;100.00
20003;BME280;10162;41.600;23.806;2023-12-22T10:21:45;93549.22;;;4.46;100.00
20003;BME280;10162;41.600;23.806;2023-12-22T10:24:40;93551.81;;;4.52;100.00
20003;BME280;10162;41.600;23.806;2023-12-22T10:27:51;93541.88;;;4.56;100.00
20003;BME280;10162;41.600;23.806;2023-12-22T10:30:18;93518.38;;;4.51;100.00
20003;BME280;10162;41.600;23.806;2023-12-22T10:32:44;93540.47;;;4.53;100.00
20003;BME280;10162;41.600;23.806;2023-12-22T10:35:10;93525.13;;;4.39;100.00
20003;BME280;10162;41.600;23.806;2023-12-22T10:40:52;93533.13;;;4.44;100.00
20003;BME280;10162;41.600;23.806;2023-12-22T10:43:29;93501.25;;;4.43;100.00
20003;BME280;10162;41.600;23.806;2023-12-22T10:46:09;93481.19;;;4.72;100.00
20003;BME280;10162;41.600;23.806;2023-12-22T10:48:36;93525.38;;;4.90;100.00
20003;BME280;10162;41.600;23.806;2023-12-22T10:51:02;93497.09;;;5.02;100.00
20003;BME280;10162;41.600;23.806;2023-12-22T10:53:28;93557.25;;;5.10;100.00
20003;BME280;10162;41.600;23.806;2023-12-22T10:59:28;93520.19;;;4.64;100.00
20003;BME280;10162;41.600;23.806;2023-12-22T11:01:58;93521.56;;;5.38;100.00
20003;BME280;10162;41.600;23.806;2023-12-22T11:04:29;93515.72;;;5.69;100.00
20003;BME280;10162;41.600;23.806;2023-12-22T11:07:05;93513.47;;;5.86;100.00
20003;BME280;10162;41.600;23.806;2023-12-22T11:09:35;93519.31;;;5.62;100.00
20003;BME280;10162;41.600;23.806;2023-12-22T11:12:02;93502.00;;;5.43;100.00
20003;BME280;10162;41.600;23.806;2023-12-22T11:14:29;93503.00;;;5.41;100.00
20003;BME280;10162;41.600;23.806;2023-12-22T11:20:51;93494.69;;;5.13;100.00
20003;BME280;10162;41.600;23.806;2023-12-22T11:23:18;93519.59;;;5.14;100.00
20003;BME280;10162;41.600;23.806;2023-12-22T11:30:07;93468.03;;;5.06;100.00
20003;BME280;10162;41.600;23.806;2023-12-22T11:32:34;93465.38;;;5.32;100.00
20003;BME280;10162;41.600;23.806;2023-12-22T11:35:00;93486.59;;;5.74;100.00
20003;BME280;10162;41.600;23.806;2023-12-22T11:37:50;93488.13;;;5.81;100.00
20003;BME280;10162;41.600;23.806;2023-12-22T11:40:18;93460.94;;;6.42;100.00
20003;BME280;10162;41.600;23.806;2023-12-22T11:42:53;93458.69;;;6.14;100.00
20003;BME280;10162;41.600;23.806;2023-12-22T11:45:19;93445.44;;;5.84;100.00
20003;BME280;10162;41.600;23.806;2023-12-22T11:47:48;93451.97;;;6.00;100.00
20003;BME280;10162;41.600;23.806;2023-12-22T11:50:28;93450.19;;;6.00;100.00
20003;BME280;10162;41.600;23.806;2023-12-22T11:52:55;93441.94;;;6.10;100.00
20003;BME280;10162;41.600;23.806;2023-12-22T11:59:16;93443.38;;;5.55;100.00
20003;BME280;10162;41.600;23.806;2023-12-22T12:01:42;93428.78;;;5.67;100.00
20003;BME280;10162;41.600;23.806;2023-12-22T12:04:08;93433.59;;;5.63;100.00
20003;BME280;10162;41.600;23.806;2023-12-22T12:06:57;93445.75;;;5.63;100.00
20003;BME280;10162;41.600;23.806;2023-12-22T12:09:46;93406.94;;;5.43;100.00
20003;BME280;10162;41.600;23.806;2023-12-22T12:12:12;93441.34;;;5.63;100.00
20003;BME280;10162;41.600;23.806;2023-12-22T12:14:41;93468.91;;;5.51;100.00
20003;BME280;10162;41.600;23.806;2023-12-22T12:17:32;93473.72;;;5.41;100.00
20003;BME280;10162;41.600;23.806;2023-12-22T12:20:01;93450.91;;;4.92;100.00
20003;BME280;10162;41.600;23.806;2023-12-22T12:22:29;93457.25;;;4.96;100.00
20003;BME280;10162;41.600;23.806;2023-12-22T12:24:56;93453.91;;;4.69;100.00
20003;BME280;10162;41.600;23.806;2023-12-22T12:31:08;93463.47;;;4.55;100.00
20003;BME280;10162;41.600;23.806;2023-12-22T12:33:35;93467.81;;;4.42;100.00
20003;BME280;10162;41.600;23.806;2023-12-22T12:36:09;93477.19;;;4.49;100.00
20003;BME280;10162;41.600;23.806;2023-12-22T12:41:30;93457.69;;;4.67;100.00
20003;BME280;10162;41.600;23.806;2023-12-22T12:44:00;93470.19;;;5.03;100.00
20003;BME280;10162;41.600;23.806;2023-12-22T12:47:13;93500.28;;;5.23;100.00
20003;BME280;10162;41.600;23.806;2023-12-22T12:49:45;93472.94;;;5.34;100.00
20003;BME280;10162;41.600;23.806;2023-12-22T12:52:15;93509.41;;;5.46;100.00
20003;BME280;10162;41.600;23.806;2023-12-22T12:54:41;93492.63;;;5.55;100.00
20003;BME280;10162;41.600;23.806;2023-12-22T12:57:24;93498.59;;;5.49;100.00
20003;BME280;10162;41.600;23.806;2023-12-22T12:59:52;93482.50;;;5.33;100.00
20003;BME280;10162;41.600;23.806;2023-12-22T13:02:19;93507.72;;;5.64;100.00
20003;BME280;10162;41.600;23.806;2023-12-22T13:04:46;93498.94;;;5.72;100.00
20003;BME280;10162;41.600;23.806;2023-12-22T13:07:27;93512.88;;;5.91;100.00
20003;BME280;10162;41.600;23.806;2023-12-22T13:09:53;93508.69;;;5.83;100.00
20003;BME280;10162;41.600;23.806;2023-12-22T13:12:19;93494.72;;;5.77;100.00
20003;BME280;10162;41.600;23.806;2023-12-22T13:14:45;93518.06;;;5.77;100.00
20003;BME280;10162;41.600;23.806;2023-12-22T13:17:29;93524.66;;;5.80;100.00
20003;BME280;10162;41.600;23.806;2023-12-22T13:19:56;93525.50;;;5.61;100.00
20003;BME280;10162;41.600;23.806;2023-12-22T13:22:22;93517.75;;;5.48;100.00
20003;BME280;10162;41.600;23.806;2023-12-22T13:24:55;93540.06;;;5.42;100.00
20003;BME280;10162;41.600;23.806;2023-12-22T13:27:23;93558.03;;;5.44;100.00
20003;BME280;10162;41.600;23.806;2023-12-22T13:29:52;93537.53;;;5.16;100.00
20003;BME280;10162;41.600;23.806;2023-12-22T13:32:21;93519.00;;;5.12;100.00
20003;BME280;10162;41.600;23.806;2023-12-22T13:34:53;93518.41;;;5.10;100.00
20003;BME280;10162;41.600;23.806;2023-12-22T13:41:22;93481.38;;;4.83;100.00
20003;BME280;10162;41.600;23.806;2023-12-22T13:43:51;93542.69;;;4.96;100.00
20003;BME280;10162;41.600;23.806;2023-12-22T13:50:15;93534.75;;;4.78;100.00
20003;BME280;10162;41.600;23.806;2023-12-22T13:56:45;93536.91;;;4.74;100.00
20003;BME280;10162;41.600;23.806;2023-12-22T13:59:11;93544.84;;;4.46;100.00
20003;BME280;10162;41.600;23.806;2023-12-22T14:01:38;93550.00;;;4.40;100.00
20003;BME280;10162;41.600;23.806;2023-12-22T14:04:04;93570.34;;;4.63;100.00
20003;BME280;10162;41.600;23.806;2023-12-22T14:11:08;93570.31;;;4.56;100.00
20003;BME280;10162;41.600;23.806;2023-12-22T14:14:06;93541.41;;;4.26;100.00
20003;BME280;10162;41.600;23.806;2023-12-22T14:20:49;93572.03;;;4.23;100.00
20003;BME280;10162;41.600;23.806;2023-12-22T14:23:15;93543.50;;;3.96;100.00
20003;BME280;10162;41.600;23.806;2023-12-22T14:25:50;93575.19;;;4.11;100.00
20003;BME280;10162;41.600;23.806;2023-12-22T14:28:16;93561.75;;;3.88;100.00
20003;BME280;10162;41.600;23.806;2023-12-22T14:30:42;93579.13;;;4.01;100.00
20003;BME280;10162;41.600;23.806;2023-12-22T14:33:09;93560.94;;;3.81;100.00
20003;BME280;10162;41.600;23.806;2023-12-22T14:35:35;93575.84;;;3.79;100.00
20003;BME280;10162;41.600;23.806;2023-12-22T14:38:05;93612.91;;;3.99;100.00
20003;BME280;10162;41.600;23.806;2023-12-22T14:40:34;93592.19;;;3.86;100.00
20003;BME280;10162;41.600;23.806;2023-12-22T14:43:00;93596.72;;;3.84;100.00
20003;BME280;10162;41.600;23.806;2023-12-22T14:45:28;93560.22;;;3.59;100.00
20003;BME280;10162;41.600;23.806;2023-12-22T14:47:54;93574.94;;;4.00;100.00
20003;BME280;10162;41.600;23.806;2023-12-22T14:50:20;93628.94;;;4.23;100.00
20003;BME280;10162;41.600;23.806;2023-12-22T14:52:46;93640.34;;;4.41;100.00
20003;BME280;10162;41.600;23.806;2023-12-22T14:55:12;93615.22;;;4.29;100.00
20003;BME280;10162;41.600;23.806;2023-12-22T14:57:47;93663.13;;;4.59;100.00
20003;BME280;10162;41.600;23.806;2023-12-22T15:00:17;93634.66;;;4.59;100.00
20003;BME280;10162;41.600;23.806;2023-12-22T15:02:45;93640.25;;;4.69;100.00
20003;BME280;10162;41.600;23.806;2023-12-22T15:09:08;93653.03;;;4.84;100.00
20003;BME280;10162;41.600;23.806;2023-12-22T15:11:46;93685.47;;;4.80;100.00
20003;BME280;10162;41.600;23.806;2023-12-22T15:14:16;93667.78;;;4.96;100.00
20003;BME280;10162;41.600;23.806;2023-12-22T15:20:48;93685.22;;;4.55;100.00
20003;BME280;10162;41.600;23.806;2023-12-22T15:24:00;93667.72;;;4.64;100.00
20003;BME280;10162;41.600;23.806;2023-12-22T15:30:39;93674.78;;;5.03;100.00
20003;BME280;10162;41.600;23.806;2023-12-22T15:33:17;93652.84;;;4.85;100.00
20003;BME280;10162;41.600;23.806;2023-12-22T15:39:39;93723.41;;;5.14;100.00
20003;BME280;10162;41.600;23.806;2023-12-22T15:42:06;93711.25;;;5.01;100.00
20003;BME280;10162;41.600;23.806;2023-12-22T15:44:32;93723.97;;;4.89;100.00
20003;BME280;10162;41.600;23.806;2023-12-22T15:51:14;93769.19;;;4.52;100.00
20003;BME280;10162;41.600;23.806;2023-12-22T15:53:47;93751.44;;;4.43;100.00
20003;BME280;10162;41.600;23.806;2023-12-22T16:00:07;93793.22;;;4.81;100.00
20003;BME280;10162;41.600;23.806;2023-12-22T16:02:35;93770.94;;;4.45;100.00
20003;BME280;10162;41.600;23.806;2023-12-22T16:05:04;93804.56;;;4.45;100.00
20003;BME280;10162;41.600;23.806;2023-12-22T16:07:40;93824.69;;;4.84;100.00
20003;BME280;10162;41.600;23.806;2023-12-22T16:10:10;93834.34;;;5.04;100.00
20003;BME280;10162;41.600;23.806;2023-12-22T16:12:42;93830.69;;;5.32;100.00
20003;BME280;10162;41.600;23.806;2023-12-22T16:15:11;93759.66;;;5.01;100.00
20003;BME280;10162;41.600;23.806;2023-12-22T16:21:03;93854.94;;;5.72;100.00
20003;BME280;10162;41.600;23.806;2023-12-22T16:23:45;93814.97;;;5.40;100.00
20003;BME280;10162;41.600;23.806;2023-12-22T16:30:36;93825.16;;;5.49;100.00
20003;BME280;10162;41.600;23.806;2023-12-22T16:33:02;93849.06;;;5.44;100.00
20003;BME280;10162;41.600;23.806;2023-12-22T16:39:26;93855.00;;;5.31;100.00
20003;BME280;10162;41.600;23.806;2023-12-22T16:41:53;93861.94;;;5.24;100.00
20003;BME280;10162;41.600;23.806;2023-12-22T16:44:19;93791.63;;;4.80;100.00
20003;BME280;10162;41.600;23.806;2023-12-22T16:49:59;93843.31;;;5.01;100.00
20003;BME280;10162;41.600;23.806;2023-12-22T16:52:25;93836.78;;;4.71;100.00
20003;BME280;10162;41.600;23.806;2023-12-22T16:54:53;93822.72;;;4.52;100.00
20003;BME280;10162;41.600;23.806;2023-12-22T16:57:43;93871.19;;;4.65;100.00
20003;BME280;10162;41.600;23.806;2023-12-22T17:00:13;93864.81;;;4.33;100.00
20003;BME280;10162;41.600;23.806;2023-12-22T17:02:40;93871.78;;;4.39;100.00
20003;BME280;10162;41.600;23.806;2023-12-22T17:05:09;93850.16;;;4.19;100.00
20003;BME280;10162;41.600;23.806;2023-12-22T17:08:00;93867.78;;;4.08;100.00
20003;BME280;10162;41.600;23.806;2023-12-22T17:10:26;93875.63;;;4.22;100.00
20003;BME280;10162;41.600;23.806;2023-12-22T17:12:52;93883.16;;;4.38;100.00
20003;BME280;10162;41.600;23.806;2023-12-22T17:15:20;93864.69;;;4.20;100.00
20003;BME280;10162;41.600;23.806;2023-12-22T17:21:40;93858.19;;;3.81;100.00
20003;BME280;10162;41.600;23.806;2023-12-22T17:24:11;93904.22;;;3.92;100.00
20003;BME280;10162;41.600;23.806;2023-12-22T17:35:21;93878.16;;;3.37;100.00
20003;BME280;10162;41.600;23.806;2023-12-22T17:37:47;93923.69;;;3.73;100.00